THY642 HLLB-LTFM
Flight info
| Callsign | THY642 |
|---|---|
| Flight time | 1h 51m |
| Altitude | 37000 |
| Route | REDFI1F REDFI M1 RASNO DCT EVLIB P32 NEVIK UP32 REDRA UR32 IMR/N0462F380 UG80 DUGLA/N0462F370 UZ713 INBET |
| Aircraft | B738/M-SDE2E3FGHIRWXY/LB1 |
Departure
| Time | 2026-05-05 19:30 |
|---|---|
| Airport | Benina International Airport (HLLB) |
Arrival
| Time | 2026-05-05 21:22 |
|---|---|
| Airport | İstanbul Airport (LTFM) |
| Time | Latitude | Longitude | Altitude | Speed | Heading |
|---|---|---|---|---|---|
| 2026-05-05 18:57 | 32.08763 | 20.26929 | 419 ft | 0 kts | 283° |
| 2026-05-05 19:20 | 32.08760 | 20.26946 | 408 ft | 3 kts | 262° |
| 2026-05-05 19:20 | 32.08761 | 20.26958 | 417 ft | 3 kts | 184° |
| 2026-05-05 19:20 | 32.08777 | 20.26953 | 411 ft | 3 kts | 155° |
| 2026-05-05 19:21 | 32.08797 | 20.26944 | 419 ft | 3 kts | 171° |
| 2026-05-05 19:21 | 32.08814 | 20.26941 | 413 ft | 3 kts | 168° |
| 2026-05-05 19:21 | 32.08829 | 20.26937 | 408 ft | 3 kts | 106° |
| 2026-05-05 19:21 | 32.08829 | 20.26916 | 411 ft | 3 kts | 86° |
| 2026-05-05 19:22 | 32.08829 | 20.26902 | 409 ft | 1 kts | 86° |
| 2026-05-05 19:25 | 32.08829 | 20.26907 | 410 ft | 2 kts | 86° |
| 2026-05-05 19:25 | 32.08830 | 20.26929 | 420 ft | 4 kts | 87° |
| 2026-05-05 19:25 | 32.08832 | 20.26955 | 417 ft | 4 kts | 85° |
| 2026-05-05 19:26 | 32.08830 | 20.26994 | 410 ft | 5 kts | 104° |
| 2026-05-05 19:26 | 32.08816 | 20.27017 | 415 ft | 6 kts | 139° |
| 2026-05-05 19:26 | 32.08783 | 20.27046 | 417 ft | 6 kts | 148° |
| 2026-05-05 19:26 | 32.08741 | 20.27074 | 421 ft | 8 kts | 151° |
| 2026-05-05 19:27 | 32.08691 | 20.27108 | 420 ft | 9 kts | 149° |
| 2026-05-05 19:27 | 32.08635 | 20.27146 | 421 ft | 10 kts | 150° |
| 2026-05-05 19:27 | 32.08573 | 20.27188 | 422 ft | 11 kts | 151° |
| 2026-05-05 19:27 | 32.08509 | 20.27230 | 423 ft | 11 kts | 150° |
| 2026-05-05 19:28 | 32.08442 | 20.27275 | 424 ft | 12 kts | 150° |
| 2026-05-05 19:28 | 32.08366 | 20.27326 | 420 ft | 14 kts | 150° |
| 2026-05-05 19:28 | 32.08279 | 20.27386 | 422 ft | 15 kts | 149° |
| 2026-05-05 19:28 | 32.08185 | 20.27450 | 426 ft | 16 kts | 148° |
| 2026-05-05 19:29 | 32.08139 | 20.27555 | 427 ft | 15 kts | 78° |
| 2026-05-05 19:29 | 32.08184 | 20.27663 | 429 ft | 15 kts | 61° |
| 2026-05-05 19:29 | 32.08239 | 20.27736 | 430 ft | 10 kts | 355° |
| 2026-05-05 19:29 | 32.08299 | 20.27693 | 423 ft | 11 kts | 329° |
| 2026-05-05 19:30 | 32.08528 | 20.27540 | 429 ft | 73 kts | 330° |
| 2026-05-05 19:30 | 32.09179 | 20.27103 | 417 ft | 139 kts | 330° |
| 2026-05-05 19:30 | 32.10142 | 20.26486 | 729 ft | 163 kts | 338° |
| 2026-05-05 19:30 | 32.11191 | 20.25998 | 1489 ft | 165 kts | 344° |
| 2026-05-05 19:31 | 32.12317 | 20.25514 | 2119 ft | 174 kts | 342° |
| 2026-05-05 19:31 | 32.13521 | 20.25087 | 2524 ft | 197 kts | 356° |
| 2026-05-05 19:31 | 32.14917 | 20.25437 | 2587 ft | 223 kts | 32° |
| 2026-05-05 19:31 | 32.16102 | 20.26676 | 3017 ft | 233 kts | 42° |
| 2026-05-05 19:32 | 32.17552 | 20.27733 | 3325 ft | 258 kts | 25° |
| 2026-05-05 19:32 | 32.19236 | 20.28576 | 3995 ft | 266 kts | 24° |
| 2026-05-05 19:32 | 32.20953 | 20.29450 | 4763 ft | 271 kts | 25° |
| 2026-05-05 19:32 | 32.22694 | 20.30354 | 5534 ft | 273 kts | 25° |
| 2026-05-05 19:33 | 32.24431 | 20.31276 | 6387 ft | 274 kts | 24° |
| 2026-05-05 19:33 | 32.26162 | 20.32209 | 7265 ft | 276 kts | 24° |
| 2026-05-05 19:33 | 32.27908 | 20.33160 | 8204 ft | 277 kts | 23° |
| 2026-05-05 19:33 | 32.29668 | 20.34126 | 9093 ft | 281 kts | 23° |
| 2026-05-05 19:34 | 32.31455 | 20.35112 | 9961 ft | 285 kts | 22° |
| 2026-05-05 19:34 | 32.33275 | 20.36119 | 10649 ft | 295 kts | 22° |
| 2026-05-05 19:34 | 32.35195 | 20.37181 | 10853 ft | 321 kts | 22° |
| 2026-05-05 19:35 | 32.39528 | 20.39589 | 11193 ft | 366 kts | 23° |
| 2026-05-05 19:35 | 32.41872 | 20.40897 | 11563 ft | 379 kts | 23° |
| 2026-05-05 19:35 | 32.44275 | 20.42241 | 12125 ft | 384 kts | 23° |
| 2026-05-05 19:35 | 32.46708 | 20.43602 | 12795 ft | 387 kts | 23° |
| 2026-05-05 19:36 | 32.49152 | 20.44967 | 13437 ft | 390 kts | 23° |
| 2026-05-05 19:36 | 32.51626 | 20.46342 | 14038 ft | 394 kts | 22° |
| 2026-05-05 19:36 | 32.54134 | 20.47703 | 14595 ft | 397 kts | 22° |
| 2026-05-05 19:36 | 32.56659 | 20.49057 | 15171 ft | 399 kts | 21° |
| 2026-05-05 19:37 | 32.59204 | 20.50419 | 15704 ft | 402 kts | 21° |
| 2026-05-05 19:37 | 32.61765 | 20.51792 | 16240 ft | 405 kts | 21° |
| 2026-05-05 19:37 | 32.64340 | 20.53175 | 16772 ft | 409 kts | 21° |
| 2026-05-05 19:37 | 32.66908 | 20.54558 | 17283 ft | 412 kts | 21° |
| 2026-05-05 19:38 | 32.69530 | 20.55972 | 17802 ft | 415 kts | 21° |
| 2026-05-05 19:38 | 32.72163 | 20.57394 | 18319 ft | 417 kts | 21° |
| 2026-05-05 19:38 | 32.74824 | 20.58833 | 18762 ft | 421 kts | 21° |
| 2026-05-05 19:38 | 32.77498 | 20.60280 | 19192 ft | 423 kts | 21° |
| 2026-05-05 19:39 | 32.80192 | 20.61739 | 19640 ft | 426 kts | 21° |
| 2026-05-05 19:39 | 32.82900 | 20.63207 | 20071 ft | 428 kts | 21° |
| 2026-05-05 19:39 | 32.85583 | 20.64662 | 20484 ft | 430 kts | 21° |
| 2026-05-05 19:39 | 32.88320 | 20.66147 | 20885 ft | 433 kts | 21° |
| 2026-05-05 19:40 | 32.91073 | 20.67642 | 21266 ft | 436 kts | 21° |
| 2026-05-05 19:40 | 32.93849 | 20.69150 | 21644 ft | 439 kts | 21° |
| 2026-05-05 19:40 | 32.96632 | 20.70663 | 22041 ft | 442 kts | 21° |
| 2026-05-05 19:40 | 32.99447 | 20.72195 | 22430 ft | 444 kts | 21° |
| 2026-05-05 19:41 | 33.02261 | 20.73727 | 22799 ft | 446 kts | 21° |
| 2026-05-05 19:41 | 33.05096 | 20.75273 | 23140 ft | 448 kts | 21° |
| 2026-05-05 19:41 | 33.07936 | 20.76821 | 23483 ft | 450 kts | 21° |
| 2026-05-05 19:41 | 33.10796 | 20.78382 | 23792 ft | 453 kts | 21° |
| 2026-05-05 19:42 | 33.13668 | 20.79950 | 24051 ft | 455 kts | 21° |
| 2026-05-05 19:42 | 33.16511 | 20.81504 | 24313 ft | 457 kts | 21° |
| 2026-05-05 19:42 | 33.19405 | 20.83087 | 24560 ft | 459 kts | 21° |
| 2026-05-05 19:42 | 33.22312 | 20.84678 | 24810 ft | 460 kts | 21° |
| 2026-05-05 19:43 | 33.25230 | 20.86277 | 25047 ft | 462 kts | 21° |
| 2026-05-05 19:43 | 33.28164 | 20.87886 | 25297 ft | 463 kts | 21° |
| 2026-05-05 19:43 | 33.31103 | 20.89497 | 25532 ft | 465 kts | 21° |
| 2026-05-05 19:43 | 33.34053 | 20.91117 | 25755 ft | 467 kts | 21° |
| 2026-05-05 19:44 | 33.37013 | 20.92745 | 25976 ft | 468 kts | 21° |
| 2026-05-05 19:44 | 33.39981 | 20.94383 | 26207 ft | 470 kts | 21° |
| 2026-05-05 19:44 | 33.42916 | 20.96006 | 26449 ft | 471 kts | 21° |
| 2026-05-05 19:44 | 33.45905 | 20.97661 | 26686 ft | 472 kts | 21° |
| 2026-05-05 19:45 | 33.48895 | 20.99318 | 26906 ft | 473 kts | 21° |
| 2026-05-05 19:45 | 33.51889 | 21.00978 | 27121 ft | 474 kts | 21° |
| 2026-05-05 19:45 | 33.54886 | 21.02641 | 27389 ft | 474 kts | 21° |
| 2026-05-05 19:45 | 33.57875 | 21.04301 | 27736 ft | 473 kts | 21° |
| 2026-05-05 19:46 | 33.60860 | 21.05960 | 28089 ft | 471 kts | 21° |
| 2026-05-05 19:46 | 33.63834 | 21.07614 | 28420 ft | 471 kts | 21° |
| 2026-05-05 19:46 | 33.66802 | 21.09265 | 28751 ft | 470 kts | 21° |
| 2026-05-05 19:46 | 33.69768 | 21.10916 | 29124 ft | 468 kts | 21° |
| 2026-05-05 19:47 | 33.72676 | 21.12537 | 29484 ft | 467 kts | 21° |
| 2026-05-05 19:47 | 33.75620 | 21.14179 | 29820 ft | 467 kts | 21° |
| 2026-05-05 19:47 | 33.78566 | 21.15822 | 30137 ft | 466 kts | 21° |
| 2026-05-05 19:47 | 33.81515 | 21.17469 | 30440 ft | 466 kts | 21° |
| 2026-05-05 19:48 | 33.84453 | 21.19111 | 30751 ft | 465 kts | 21° |
| 2026-05-05 19:48 | 33.87385 | 21.20751 | 31051 ft | 464 kts | 21° |
| 2026-05-05 19:48 | 33.90320 | 21.22393 | 31288 ft | 465 kts | 20° |
| 2026-05-05 19:48 | 33.93258 | 21.24038 | 31540 ft | 466 kts | 20° |
| 2026-05-05 19:49 | 33.96195 | 21.25685 | 31860 ft | 465 kts | 20° |
| 2026-05-05 19:49 | 33.98130 | 21.26771 | 32085 ft | 464 kts | 20° |
| 2026-05-05 19:49 | 34.02042 | 21.28968 | 32506 ft | 462 kts | 20° |
| 2026-05-05 19:49 | 34.04923 | 21.30587 | 32783 ft | 462 kts | 20° |
| 2026-05-05 19:50 | 34.07838 | 21.32226 | 33073 ft | 462 kts | 20° |
| 2026-05-05 19:50 | 34.10748 | 21.33864 | 33385 ft | 461 kts | 19° |
| 2026-05-05 19:50 | 34.13653 | 21.35500 | 33678 ft | 460 kts | 19° |
| 2026-05-05 19:50 | 34.16553 | 21.37135 | 33970 ft | 460 kts | 19° |
| 2026-05-05 19:51 | 34.19457 | 21.38772 | 34246 ft | 459 kts | 19° |
| 2026-05-05 19:51 | 34.22355 | 21.40409 | 34509 ft | 458 kts | 19° |
| 2026-05-05 19:51 | 34.25244 | 21.42041 | 34777 ft | 457 kts | 19° |
| 2026-05-05 19:51 | 34.28123 | 21.43669 | 35027 ft | 456 kts | 19° |
| 2026-05-05 19:52 | 34.30961 | 21.45274 | 35261 ft | 456 kts | 19° |
| 2026-05-05 19:52 | 34.33830 | 21.46876 | 35568 ft | 452 kts | 17° |
| 2026-05-05 19:52 | 34.36733 | 21.48281 | 35878 ft | 447 kts | 14° |
| 2026-05-05 19:52 | 34.39655 | 21.49550 | 36114 ft | 445 kts | 13° |
| 2026-05-05 19:53 | 34.42584 | 21.50771 | 36317 ft | 445 kts | 13° |
| 2026-05-05 19:53 | 34.45512 | 21.51990 | 36545 ft | 444 kts | 13° |
| 2026-05-05 19:53 | 34.48434 | 21.53222 | 36788 ft | 443 kts | 13° |
| 2026-05-05 19:53 | 34.51340 | 21.54466 | 37019 ft | 443 kts | 13° |
| 2026-05-05 19:54 | 34.54240 | 21.55721 | 37180 ft | 444 kts | 13° |
| 2026-05-05 19:54 | 34.60069 | 21.58266 | 37171 ft | 444 kts | 13° |
| 2026-05-05 19:55 | 34.64878 | 21.60377 | 37148 ft | 440 kts | 13° |
| 2026-05-05 19:55 | 34.71549 | 21.63306 | 37156 ft | 437 kts | 13° |
| 2026-05-05 19:56 | 34.77268 | 21.65817 | 37165 ft | 435 kts | 13° |
| 2026-05-05 19:56 | 34.82009 | 21.67902 | 37151 ft | 435 kts | 13° |
| 2026-05-05 19:57 | 34.87703 | 21.70409 | 37155 ft | 435 kts | 13° |
| 2026-05-05 19:57 | 34.93414 | 21.72928 | 37155 ft | 437 kts | 13° |
| 2026-05-05 19:58 | 34.99106 | 21.75451 | 37179 ft | 439 kts | 15° |
| 2026-05-05 19:58 | 35.01850 | 21.77184 | 37150 ft | 451 kts | 28° |
| 2026-05-05 19:58 | 35.04301 | 21.79629 | 37165 ft | 461 kts | 39° |
| 2026-05-05 19:58 | 35.06360 | 21.82686 | 37152 ft | 471 kts | 51° |
| 2026-05-05 19:59 | 35.08115 | 21.86078 | 37163 ft | 474 kts | 52° |
| 2026-05-05 19:59 | 35.11607 | 21.92927 | 37152 ft | 474 kts | 51° |
| 2026-05-05 20:00 | 35.15355 | 21.99470 | 37154 ft | 470 kts | 45° |
| 2026-05-05 20:00 | 35.19504 | 22.05632 | 37154 ft | 469 kts | 44° |
| 2026-05-05 20:01 | 35.23654 | 22.11776 | 37143 ft | 468 kts | 45° |
| 2026-05-05 20:01 | 35.27753 | 22.17965 | 37147 ft | 468 kts | 45° |
| 2026-05-05 20:02 | 35.31830 | 22.24171 | 37144 ft | 467 kts | 45° |
| 2026-05-05 20:02 | 35.35902 | 22.30377 | 37164 ft | 466 kts | 45° |
| 2026-05-05 20:03 | 35.39954 | 22.36565 | 37141 ft | 465 kts | 45° |
| 2026-05-05 20:03 | 35.43982 | 22.42799 | 37142 ft | 465 kts | 46° |
| 2026-05-05 20:04 | 35.47955 | 22.48981 | 37135 ft | 464 kts | 45° |
| 2026-05-05 20:04 | 35.51953 | 22.55207 | 37129 ft | 464 kts | 45° |
| 2026-05-05 20:05 | 35.55947 | 22.61431 | 37127 ft | 463 kts | 45° |
| 2026-05-05 20:05 | 35.59937 | 22.67657 | 37128 ft | 463 kts | 45° |
| 2026-05-05 20:06 | 35.63899 | 22.73853 | 37125 ft | 462 kts | 45° |
| 2026-05-05 20:06 | 35.67874 | 22.80081 | 37134 ft | 462 kts | 45° |
| 2026-05-05 20:07 | 35.68549 | 22.81138 | 37133 ft | 462 kts | 45° |
| 2026-05-05 20:09 | 35.72036 | 22.86612 | 37139 ft | 462 kts | 45° |
| 2026-05-05 20:09 | 35.76003 | 22.92850 | 37118 ft | 462 kts | 45° |
| 2026-05-05 20:10 | 35.79940 | 22.99053 | 37110 ft | 462 kts | 45° |
| 2026-05-05 20:10 | 35.83892 | 23.05289 | 37115 ft | 461 kts | 45° |
| 2026-05-05 20:11 | 35.87849 | 23.11545 | 37115 ft | 461 kts | 45° |
| 2026-05-05 20:11 | 35.91762 | 23.17745 | 37110 ft | 461 kts | 45° |
| 2026-05-05 20:12 | 35.95697 | 23.23992 | 37099 ft | 460 kts | 45° |
| 2026-05-05 20:12 | 35.99629 | 23.30246 | 37100 ft | 460 kts | 45° |
| 2026-05-05 20:13 | 36.03548 | 23.36490 | 37094 ft | 459 kts | 45° |
| 2026-05-05 20:13 | 36.07461 | 23.42737 | 37095 ft | 459 kts | 45° |
| 2026-05-05 20:14 | 36.11342 | 23.48942 | 37091 ft | 459 kts | 45° |
| 2026-05-05 20:14 | 36.15246 | 23.55190 | 37090 ft | 459 kts | 45° |
| 2026-05-05 20:15 | 36.19146 | 23.61436 | 37092 ft | 458 kts | 45° |
| 2026-05-05 20:15 | 36.23045 | 23.67693 | 37102 ft | 458 kts | 45° |
| 2026-05-05 20:16 | 36.26947 | 23.73969 | 37090 ft | 459 kts | 45° |
| 2026-05-05 20:16 | 36.30835 | 23.80234 | 37088 ft | 459 kts | 45° |
| 2026-05-05 20:17 | 36.34721 | 23.86508 | 37082 ft | 458 kts | 45° |
| 2026-05-05 20:17 | 36.38579 | 23.92748 | 37082 ft | 458 kts | 45° |
| 2026-05-05 20:18 | 36.42457 | 23.99032 | 37083 ft | 458 kts | 45° |
| 2026-05-05 20:18 | 36.46328 | 24.05314 | 37078 ft | 458 kts | 45° |
| 2026-05-05 20:19 | 36.50168 | 24.11561 | 37079 ft | 457 kts | 45° |
| 2026-05-05 20:19 | 36.54028 | 24.17848 | 37074 ft | 457 kts | 45° |
| 2026-05-05 20:20 | 36.57884 | 24.24143 | 37085 ft | 457 kts | 44° |
| 2026-05-05 20:20 | 36.61733 | 24.30438 | 37071 ft | 456 kts | 45° |
| 2026-05-05 20:21 | 36.65571 | 24.36727 | 37061 ft | 456 kts | 45° |
| 2026-05-05 20:21 | 36.69405 | 24.43022 | 37082 ft | 455 kts | 44° |
| 2026-05-05 20:22 | 36.73206 | 24.49270 | 37075 ft | 455 kts | 44° |
| 2026-05-05 20:22 | 36.77056 | 24.55542 | 37065 ft | 454 kts | 43° |
| 2026-05-05 20:23 | 36.80971 | 24.61744 | 37060 ft | 453 kts | 43° |
| 2026-05-05 20:23 | 36.84866 | 24.67929 | 37075 ft | 453 kts | 43° |
| 2026-05-05 20:24 | 36.88751 | 24.74133 | 37070 ft | 453 kts | 43° |
| 2026-05-05 20:24 | 36.92633 | 24.80348 | 37081 ft | 453 kts | 43° |
| 2026-05-05 20:25 | 36.96515 | 24.86517 | 37075 ft | 454 kts | 43° |
| 2026-05-05 20:25 | 37.00428 | 24.92726 | 37075 ft | 454 kts | 43° |
| 2026-05-05 20:26 | 37.04336 | 24.98949 | 37077 ft | 455 kts | 43° |
| 2026-05-05 20:26 | 37.08241 | 25.05182 | 37080 ft | 456 kts | 43° |
| 2026-05-05 20:27 | 37.12154 | 25.11441 | 37081 ft | 456 kts | 43° |
| 2026-05-05 20:27 | 37.16063 | 25.17649 | 37075 ft | 456 kts | 43° |
| 2026-05-05 20:28 | 37.20028 | 25.23868 | 37075 ft | 456 kts | 43° |
| 2026-05-05 20:28 | 37.23912 | 25.30189 | 37077 ft | 458 kts | 44° |
| 2026-05-05 20:29 | 37.27776 | 25.36589 | 37086 ft | 459 kts | 44° |
| 2026-05-05 20:29 | 37.31656 | 25.42884 | 37075 ft | 458 kts | 44° |
| 2026-05-05 20:30 | 37.35577 | 25.49200 | 37075 ft | 458 kts | 44° |
| 2026-05-05 20:30 | 37.38828 | 25.54463 | 37093 ft | 458 kts | 44° |
| 2026-05-05 20:31 | 37.42736 | 25.60810 | 37077 ft | 458 kts | 44° |
| 2026-05-05 20:31 | 37.46644 | 25.67171 | 37079 ft | 459 kts | 45° |
| 2026-05-05 20:32 | 37.50549 | 25.73547 | 37072 ft | 459 kts | 45° |
| 2026-05-05 20:32 | 37.54422 | 25.79889 | 37091 ft | 459 kts | 45° |
| 2026-05-05 20:33 | 37.58322 | 25.86284 | 37077 ft | 460 kts | 45° |
| 2026-05-05 20:33 | 37.62221 | 25.92681 | 37067 ft | 460 kts | 45° |
| 2026-05-05 20:34 | 37.66122 | 25.99090 | 37071 ft | 460 kts | 46° |
| 2026-05-05 20:34 | 37.70020 | 26.05508 | 37068 ft | 461 kts | 46° |
| 2026-05-05 20:35 | 37.73923 | 26.11947 | 37067 ft | 461 kts | 46° |
| 2026-05-05 20:35 | 37.77786 | 26.18357 | 37069 ft | 461 kts | 46° |
| 2026-05-05 20:36 | 37.81658 | 26.24828 | 37068 ft | 461 kts | 46° |
| 2026-05-05 20:36 | 37.85534 | 26.31312 | 37085 ft | 462 kts | 46° |
| 2026-05-05 20:37 | 37.89431 | 26.37805 | 37071 ft | 462 kts | 46° |
| 2026-05-05 20:37 | 37.93327 | 26.44270 | 37067 ft | 462 kts | 46° |
| 2026-05-05 20:38 | 37.97216 | 26.50752 | 37064 ft | 462 kts | 46° |
| 2026-05-05 20:38 | 38.01247 | 26.56976 | 37089 ft | 458 kts | 42° |
| 2026-05-05 20:39 | 38.05507 | 26.62978 | 37074 ft | 457 kts | 42° |
| 2026-05-05 20:39 | 38.09763 | 26.68995 | 37064 ft | 458 kts | 42° |
| 2026-05-05 20:40 | 38.13990 | 26.75061 | 37070 ft | 458 kts | 43° |
| 2026-05-05 20:40 | 38.18202 | 26.81142 | 37079 ft | 458 kts | 43° |
| 2026-05-05 20:41 | 38.22344 | 26.87133 | 37075 ft | 458 kts | 43° |
| 2026-05-05 20:41 | 38.26559 | 26.93237 | 37080 ft | 458 kts | 43° |
| 2026-05-05 20:42 | 38.31041 | 26.98912 | 37064 ft | 446 kts | 27° |
| 2026-05-05 20:42 | 38.33759 | 27.00721 | 37070 ft | 437 kts | 16° |
| 2026-05-05 20:42 | 38.36621 | 27.01763 | 37077 ft | 429 kts | 4° |
| 2026-05-05 20:43 | 38.42526 | 27.02791 | 37065 ft | 428 kts | 3° |
| 2026-05-05 20:43 | 38.48435 | 27.03800 | 37067 ft | 428 kts | 4° |
| 2026-05-05 20:44 | 38.54335 | 27.04858 | 37077 ft | 428 kts | 4° |
| 2026-05-05 20:44 | 38.60243 | 27.05943 | 37067 ft | 428 kts | 4° |
| 2026-05-05 20:45 | 38.69086 | 27.07578 | 37071 ft | 428 kts | 4° |
| 2026-05-05 20:45 | 38.74947 | 27.08663 | 37087 ft | 428 kts | 4° |
| 2026-05-05 20:46 | 38.80844 | 27.09755 | 37065 ft | 428 kts | 4° |
| 2026-05-05 20:46 | 38.86750 | 27.10852 | 37074 ft | 428 kts | 4° |
| 2026-05-05 20:47 | 38.92648 | 27.11949 | 37075 ft | 428 kts | 5° |
| 2026-05-05 20:47 | 38.98528 | 27.13043 | 37075 ft | 428 kts | 5° |
| 2026-05-05 20:48 | 39.04429 | 27.14127 | 37078 ft | 428 kts | 4° |
| 2026-05-05 20:48 | 39.10334 | 27.15191 | 37082 ft | 428 kts | 5° |
| 2026-05-05 20:49 | 39.16244 | 27.16260 | 37081 ft | 428 kts | 5° |
| 2026-05-05 20:49 | 39.22158 | 27.17333 | 37101 ft | 429 kts | 4° |
| 2026-05-05 20:50 | 39.28045 | 27.18405 | 37089 ft | 429 kts | 5° |
| 2026-05-05 20:50 | 39.33971 | 27.19485 | 37083 ft | 430 kts | 5° |
| 2026-05-05 20:51 | 39.39920 | 27.20572 | 37090 ft | 431 kts | 5° |
| 2026-05-05 20:51 | 39.45847 | 27.21656 | 37085 ft | 432 kts | 5° |
| 2026-05-05 20:52 | 39.51812 | 27.22395 | 37019 ft | 430 kts | 355° |
| 2026-05-05 20:52 | 39.54814 | 27.22214 | 36745 ft | 432 kts | 354° |
| 2026-05-05 20:52 | 39.57815 | 27.21979 | 36477 ft | 429 kts | 354° |
| 2026-05-05 20:53 | 39.60776 | 27.21743 | 36012 ft | 424 kts | 354° |
| 2026-05-05 20:53 | 39.63711 | 27.21520 | 35416 ft | 423 kts | 354° |
| 2026-05-05 20:53 | 39.66642 | 27.21309 | 34827 ft | 422 kts | 354° |
| 2026-05-05 20:53 | 39.69574 | 27.21107 | 34188 ft | 421 kts | 355° |
| 2026-05-05 20:54 | 39.72505 | 27.20911 | 33463 ft | 422 kts | 355° |
| 2026-05-05 20:54 | 39.75444 | 27.20718 | 32788 ft | 420 kts | 355° |
| 2026-05-05 20:54 | 39.78367 | 27.20526 | 32116 ft | 419 kts | 355° |
| 2026-05-05 20:54 | 39.81239 | 27.20337 | 31425 ft | 419 kts | 355° |
| 2026-05-05 20:55 | 39.84189 | 27.20142 | 30710 ft | 418 kts | 355° |
| 2026-05-05 20:55 | 39.87092 | 27.19950 | 29938 ft | 418 kts | 355° |
| 2026-05-05 20:55 | 39.90002 | 27.19757 | 29110 ft | 417 kts | 356° |
| 2026-05-05 20:55 | 39.92866 | 27.19568 | 28291 ft | 417 kts | 356° |
| 2026-05-05 20:56 | 39.95766 | 27.19393 | 27458 ft | 417 kts | 358° |
| 2026-05-05 20:56 | 39.98676 | 27.19619 | 26622 ft | 419 kts | 6° |
| 2026-05-05 20:56 | 40.01492 | 27.20373 | 26430 ft | 410 kts | 14° |
| 2026-05-05 20:56 | 40.04265 | 27.21524 | 25910 ft | 428 kts | 16° |
| 2026-05-05 20:57 | 40.07121 | 27.22735 | 25462 ft | 427 kts | 16° |
| 2026-05-05 20:57 | 40.09897 | 27.23908 | 25313 ft | 410 kts | 16° |
| 2026-05-05 20:57 | 40.12563 | 27.25018 | 25141 ft | 396 kts | 15° |
| 2026-05-05 20:57 | 40.15118 | 27.26071 | 24982 ft | 383 kts | 15° |
| 2026-05-05 20:58 | 40.17613 | 27.27096 | 24820 ft | 370 kts | 15° |
| 2026-05-05 20:58 | 40.20014 | 27.28239 | 24379 ft | 370 kts | 25° |
| 2026-05-05 20:58 | 40.22139 | 27.30098 | 24219 ft | 362 kts | 34° |
| 2026-05-05 20:58 | 40.24003 | 27.32251 | 24123 ft | 354 kts | 43° |
| 2026-05-05 20:59 | 40.25562 | 27.34716 | 23877 ft | 351 kts | 50° |
| 2026-05-05 20:59 | 40.26943 | 27.37330 | 23648 ft | 345 kts | 51° |
| 2026-05-05 20:59 | 40.28275 | 27.39906 | 23370 ft | 340 kts | 51° |
| 2026-05-05 20:59 | 40.29591 | 27.42459 | 22997 ft | 338 kts | 51° |
| 2026-05-05 21:00 | 40.30915 | 27.45022 | 22471 ft | 339 kts | 51° |
| 2026-05-05 21:00 | 40.32238 | 27.47576 | 22040 ft | 338 kts | 52° |
| 2026-05-05 21:00 | 40.33562 | 27.50126 | 21597 ft | 338 kts | 52° |
| 2026-05-05 21:00 | 40.34881 | 27.52665 | 21165 ft | 337 kts | 52° |
| 2026-05-05 21:01 | 40.36201 | 27.55206 | 20742 ft | 336 kts | 52° |
| 2026-05-05 21:01 | 40.37517 | 27.57740 | 20315 ft | 336 kts | 51° |
| 2026-05-05 21:01 | 40.38832 | 27.60270 | 19897 ft | 335 kts | 51° |
| 2026-05-05 21:01 | 40.40142 | 27.62794 | 19484 ft | 334 kts | 52° |
| 2026-05-05 21:02 | 40.41448 | 27.65310 | 19079 ft | 333 kts | 52° |
| 2026-05-05 21:02 | 40.42727 | 27.67779 | 18676 ft | 329 kts | 52° |
| 2026-05-05 21:02 | 40.43995 | 27.70230 | 18252 ft | 321 kts | 52° |
| 2026-05-05 21:02 | 40.45233 | 27.72626 | 17784 ft | 313 kts | 52° |
| 2026-05-05 21:03 | 40.46448 | 27.74977 | 17296 ft | 306 kts | 52° |
| 2026-05-05 21:03 | 40.47631 | 27.77266 | 16886 ft | 300 kts | 52° |
| 2026-05-05 21:03 | 40.48803 | 27.79533 | 16446 ft | 299 kts | 52° |
| 2026-05-05 21:03 | 40.49971 | 27.81795 | 16009 ft | 297 kts | 52° |
| 2026-05-05 21:04 | 40.51129 | 27.84038 | 15581 ft | 296 kts | 52° |
| 2026-05-05 21:04 | 40.52281 | 27.86270 | 15162 ft | 295 kts | 52° |
| 2026-05-05 21:04 | 40.53427 | 27.88495 | 14749 ft | 293 kts | 52° |
| 2026-05-05 21:04 | 40.54552 | 27.90680 | 14353 ft | 292 kts | 52° |
| 2026-05-05 21:05 | 40.55691 | 27.92893 | 13949 ft | 291 kts | 52° |
| 2026-05-05 21:05 | 40.56823 | 27.95095 | 13507 ft | 290 kts | 52° |
| 2026-05-05 21:05 | 40.57951 | 27.97292 | 13059 ft | 289 kts | 52° |
| 2026-05-05 21:05 | 40.59073 | 27.99477 | 12614 ft | 288 kts | 52° |
| 2026-05-05 21:06 | 40.60192 | 28.01660 | 12180 ft | 286 kts | 52° |
| 2026-05-05 21:06 | 40.61305 | 28.03831 | 11752 ft | 285 kts | 52° |
| 2026-05-05 21:06 | 40.62410 | 28.05989 | 11366 ft | 282 kts | 52° |
| 2026-05-05 21:06 | 40.63479 | 28.08079 | 11142 ft | 277 kts | 52° |
| 2026-05-05 21:07 | 40.64546 | 28.10167 | 10891 ft | 274 kts | 51° |
| 2026-05-05 21:07 | 40.65607 | 28.12242 | 10651 ft | 272 kts | 51° |
| 2026-05-05 21:07 | 40.66664 | 28.14311 | 10408 ft | 271 kts | 51° |
| 2026-05-05 21:07 | 40.67715 | 28.16370 | 10169 ft | 270 kts | 51° |
| 2026-05-05 21:08 | 40.68762 | 28.18420 | 9925 ft | 269 kts | 51° |
| 2026-05-05 21:08 | 40.69806 | 28.20468 | 9661 ft | 269 kts | 51° |
| 2026-05-05 21:08 | 40.70849 | 28.22515 | 9388 ft | 269 kts | 51° |
| 2026-05-05 21:08 | 40.71893 | 28.24566 | 9141 ft | 269 kts | 51° |
| 2026-05-05 21:09 | 40.72935 | 28.26613 | 8876 ft | 269 kts | 51° |
| 2026-05-05 21:09 | 40.73975 | 28.28657 | 8614 ft | 269 kts | 51° |
| 2026-05-05 21:09 | 40.75016 | 28.30708 | 8370 ft | 268 kts | 51° |
| 2026-05-05 21:09 | 40.76043 | 28.32730 | 8111 ft | 268 kts | 51° |
| 2026-05-05 21:10 | 40.77080 | 28.34773 | 7852 ft | 267 kts | 51° |
| 2026-05-05 21:10 | 40.78112 | 28.36809 | 7601 ft | 266 kts | 51° |
| 2026-05-05 21:10 | 40.79138 | 28.38835 | 7364 ft | 265 kts | 51° |
| 2026-05-05 21:10 | 40.80160 | 28.40852 | 7122 ft | 264 kts | 51° |
| 2026-05-05 21:11 | 40.81175 | 28.42859 | 6877 ft | 262 kts | 51° |
| 2026-05-05 21:11 | 40.82186 | 28.44858 | 6634 ft | 261 kts | 51° |
| 2026-05-05 21:11 | 40.83190 | 28.46845 | 6388 ft | 260 kts | 51° |
| 2026-05-05 21:11 | 40.84189 | 28.48824 | 6124 ft | 258 kts | 51° |
| 2026-05-05 21:12 | 40.85185 | 28.50794 | 5867 ft | 257 kts | 51° |
| 2026-05-05 21:12 | 40.86175 | 28.52757 | 5613 ft | 256 kts | 51° |
| 2026-05-05 21:12 | 40.87160 | 28.54711 | 5402 ft | 253 kts | 51° |
| 2026-05-05 21:12 | 40.88129 | 28.56635 | 5431 ft | 252 kts | 52° |
| 2026-05-05 21:13 | 40.89086 | 28.58590 | 5435 ft | 256 kts | 57° |
| 2026-05-05 21:13 | 40.89730 | 28.60817 | 5438 ft | 260 kts | 68° |
| 2026-05-05 21:13 | 40.90277 | 28.63098 | 5434 ft | 259 kts | 67° |
| 2026-05-05 21:13 | 40.90840 | 28.65340 | 5431 ft | 259 kts | 66° |
| 2026-05-05 21:14 | 40.91424 | 28.67592 | 5433 ft | 259 kts | 64° |
| 2026-05-05 21:14 | 40.92464 | 28.69482 | 5324 ft | 255 kts | 35° |
| 2026-05-05 21:14 | 40.93957 | 28.70747 | 5251 ft | 255 kts | 27° |
| 2026-05-05 21:14 | 40.95517 | 28.71875 | 5134 ft | 254 kts | 26° |
| 2026-05-05 21:15 | 40.97008 | 28.72943 | 5019 ft | 238 kts | 26° |
| 2026-05-05 21:15 | 40.98500 | 28.73538 | 4994 ft | 216 kts | 358° |
| 2026-05-05 21:15 | 40.99943 | 28.73364 | 4984 ft | 199 kts | 358° |
| 2026-05-05 21:15 | 41.01274 | 28.73332 | 4990 ft | 186 kts | 359° |
| 2026-05-05 21:16 | 41.02558 | 28.73315 | 4974 ft | 186 kts | 359° |
| 2026-05-05 21:16 | 41.03867 | 28.73292 | 4745 ft | 189 kts | 359° |
| 2026-05-05 21:16 | 41.05191 | 28.73265 | 4482 ft | 190 kts | 359° |
| 2026-05-05 21:16 | 41.06501 | 28.73235 | 4216 ft | 185 kts | 359° |
| 2026-05-05 21:17 | 41.07743 | 28.73206 | 3995 ft | 176 kts | 359° |
| 2026-05-05 21:17 | 41.08944 | 28.73178 | 3746 ft | 167 kts | 359° |
| 2026-05-05 21:17 | 41.10067 | 28.73152 | 3544 ft | 157 kts | 359° |
| 2026-05-05 21:17 | 41.11114 | 28.73127 | 3354 ft | 146 kts | 359° |
| 2026-05-05 21:18 | 41.11788 | 28.73112 | 3207 ft | 142 kts | 359° |
| 2026-05-05 21:18 | 41.12775 | 28.73088 | 3001 ft | 143 kts | 359° |
| 2026-05-05 21:18 | 41.13787 | 28.73065 | 2820 ft | 147 kts | 359° |
| 2026-05-05 21:18 | 41.14800 | 28.73042 | 2613 ft | 147 kts | 359° |
| 2026-05-05 21:19 | 41.15821 | 28.73018 | 2419 ft | 146 kts | 359° |
| 2026-05-05 21:19 | 41.16843 | 28.72994 | 2210 ft | 146 kts | 359° |
| 2026-05-05 21:19 | 41.17868 | 28.72970 | 2015 ft | 149 kts | 359° |
| 2026-05-05 21:19 | 41.18900 | 28.72947 | 1808 ft | 149 kts | 359° |
| 2026-05-05 21:20 | 41.19931 | 28.72922 | 1611 ft | 148 kts | 359° |
| 2026-05-05 21:20 | 41.20970 | 28.72895 | 1389 ft | 150 kts | 359° |
| 2026-05-05 21:20 | 41.22019 | 28.72871 | 1165 ft | 150 kts | 359° |
| 2026-05-05 21:20 | 41.23040 | 28.72849 | 965 ft | 147 kts | 360° |
| 2026-05-05 21:21 | 41.24043 | 28.72830 | 783 ft | 145 kts | 360° |
| 2026-05-05 21:21 | 41.25041 | 28.72805 | 590 ft | 144 kts | 0° |
| 2026-05-05 21:21 | 41.26028 | 28.72778 | 425 ft | 141 kts | 1° |
| 2026-05-05 21:21 | 41.26981 | 28.72757 | 331 ft | 128 kts | 1° |
| 2026-05-05 21:22 | 41.27616 | 28.72745 | 332 ft | 67 kts | 358° |
| 2026-05-05 21:22 | 41.27908 | 28.72750 | 333 ft | 29 kts | 13° |
| 2026-05-05 21:22 | 41.28054 | 28.72826 | 333 ft | 21 kts | 30° |
| 2026-05-05 21:22 | 41.28119 | 28.72880 | 331 ft | 9 kts | 36° |
| 2026-05-05 21:23 | 41.28118 | 28.72945 | 332 ft | 9 kts | 143° |
| 2026-05-05 21:23 | 41.28061 | 28.72960 | 332 ft | 9 kts | 178° |
| 2026-05-05 21:23 | 41.28003 | 28.72962 | 329 ft | 8 kts | 178° |
| 2026-05-05 21:23 | 41.27940 | 28.72964 | 332 ft | 10 kts | 180° |
| 2026-05-05 21:24 | 41.27854 | 28.72965 | 331 ft | 15 kts | 179° |
| 2026-05-05 21:24 | 41.27734 | 28.72969 | 333 ft | 20 kts | 179° |
| 2026-05-05 21:24 | 41.27590 | 28.72972 | 330 ft | 21 kts | 179° |
| 2026-05-05 21:24 | 41.27447 | 28.72976 | 333 ft | 20 kts | 178° |
| 2026-05-05 21:25 | 41.27308 | 28.72978 | 333 ft | 20 kts | 178° |
| 2026-05-05 21:25 | 41.27176 | 28.72981 | 329 ft | 19 kts | 178° |
| 2026-05-05 21:25 | 41.27054 | 28.72985 | 330 ft | 11 kts | 179° |
| 2026-05-05 21:25 | 41.26979 | 28.72992 | 331 ft | 11 kts | 158° |
| 2026-05-05 21:26 | 41.26954 | 28.73078 | 333 ft | 10 kts | 91° |
| 2026-05-05 21:26 | 41.26954 | 28.73172 | 333 ft | 10 kts | 89° |
| 2026-05-05 21:26 | 41.26955 | 28.73280 | 333 ft | 14 kts | 89° |
| 2026-05-05 21:26 | 41.26957 | 28.73412 | 332 ft | 14 kts | 89° |
| 2026-05-05 21:27 | 41.26958 | 28.73539 | 333 ft | 14 kts | 88° |
| 2026-05-05 21:27 | 41.26961 | 28.73662 | 333 ft | 13 kts | 89° |
| 2026-05-05 21:27 | 41.26962 | 28.73780 | 333 ft | 13 kts | 89° |
| 2026-05-05 21:27 | 41.26963 | 28.73896 | 333 ft | 12 kts | 89° |
| 2026-05-05 21:28 | 41.26966 | 28.74015 | 333 ft | 14 kts | 88° |
| 2026-05-05 21:28 | 41.26967 | 28.74151 | 333 ft | 15 kts | 89° |
| 2026-05-05 21:28 | 41.26969 | 28.74283 | 333 ft | 14 kts | 89° |
| 2026-05-05 21:28 | 41.26971 | 28.74409 | 333 ft | 13 kts | 88° |
| 2026-05-05 21:29 | 41.26972 | 28.74530 | 332 ft | 13 kts | 91° |
| 2026-05-05 21:29 | 41.26974 | 28.74647 | 330 ft | 13 kts | 90° |
| 2026-05-05 21:29 | 41.26975 | 28.74763 | 332 ft | 12 kts | 88° |
| 2026-05-05 21:29 | 41.26977 | 28.74873 | 333 ft | 12 kts | 89° |
| 2026-05-05 21:30 | 41.26978 | 28.74982 | 333 ft | 12 kts | 88° |
| 2026-05-05 21:30 | 41.26980 | 28.75088 | 333 ft | 11 kts | 92° |
| 2026-05-05 21:30 | 41.26928 | 28.75150 | 329 ft | 11 kts | 176° |
| 2026-05-05 21:30 | 41.26851 | 28.75151 | 329 ft | 11 kts | 179° |
| 2026-05-05 21:31 | 41.26777 | 28.75153 | 333 ft | 11 kts | 179° |
| 2026-05-05 21:31 | 41.26705 | 28.75155 | 332 ft | 10 kts | 179° |
| 2026-05-05 21:31 | 41.26636 | 28.75147 | 333 ft | 10 kts | 195° |
| 2026-05-05 21:31 | 41.26571 | 28.75120 | 333 ft | 10 kts | 197° |
| 2026-05-05 21:32 | 41.26504 | 28.75093 | 333 ft | 11 kts | 196° |
| 2026-05-05 21:32 | 41.26422 | 28.75059 | 330 ft | 14 kts | 197° |
| 2026-05-05 21:32 | 41.26325 | 28.75021 | 331 ft | 12 kts | 197° |
| 2026-05-05 21:32 | 41.26284 | 28.74957 | 331 ft | 8 kts | 282° |
| 2026-05-05 21:33 | 41.26295 | 28.74905 | 330 ft | 1 kts | 286° |
| 2026-05-05 21:33 | 41.26298 | 28.74891 | 331 ft | 3 kts | 287° |
| 2026-05-05 21:33 | 41.26301 | 28.74879 | 330 ft | 2 kts | 287° |
| 2026-05-05 21:33 | 41.26302 | 28.74876 | 331 ft | 0 kts | 287° |